Terminal Aerodrome Forecast
Issued by NWS La Crosse, WI

Home | Current Version | Previous Version | Text Only | Print | Product List | Glossary On
Versions: 1 2 3 4 5 6 7 8 9 10 11 12 13 14 15 16 17 18
000
FTUS43 KARX 191730
TAFLSE
TAF
KLSE 191730Z 1918/2018 16015G25KT P6SM SCT200
     FM200000 16010KT P6SM BKN120
     FM200900 17008KT P6SM VCSH BKN070
     FM201200 17006KT P6SM -SHRA BKN040=

USA.gov is the U.S. government's official web portal to all federal, state and local government web resources and services.